Time;durP1;ratioP1;P1;durP2;ratioP2;P2;SDS_P1;SDS_P2;PMS_P1;PMS_P2;Temp;Humidity;BMP_temperature;BMP_pressure;BME280_temperature;BME280_humidity;BME280_pressure;Samples;Min_cycle;Max_cycle;Signal;HPM_P1;HPM_P2
2022/05/28 00:00:12;;;;;;;0.82;0.15;;;;;;;19.80;42.54;99741.91;4388245;32;33656;-89
2022/05/28 00:02:42;;;;;;;0.20;0.20;;;;;;;19.96;42.13;99747.69;4382879;32;34043;-90
2022/05/28 00:05:11;;;;;;;0.95;0.40;;;;;;;19.75;42.54;99744.09;4383724;32;32931;-90
2022/05/28 00:07:42;;;;;;;0.25;0.25;;;;;;;19.77;43.24;99755.56;4395724;32;33135;-90
2022/05/28 00:10:14;;;;;;;0.95;0.28;;;;;;;19.78;42.92;99752.75;4351182;32;32356;-90
2022/05/28 00:12:43;;;;;;;0.32;0.20;;;;;;;19.89;42.35;99743.81;4375596;32;34238;-90
2022/05/28 00:15:20;;;;;;;0.52;0.30;;;;;;;19.92;41.97;99747.09;4374336;32;34844;-92
2022/05/28 00:18:03;;;;;;;1.25;0.32;;;;;;;19.67;42.68;99748.28;4375313;32;33871;-89
2022/05/28 00:21:04;;;;;;;1.65;0.40;;;;;;;20.05;41.55;99746.06;4380926;32;33781;-91
2022/05/28 00:23:44;;;;;;;1.17;0.32;;;;;;;20.03;42.00;99743.50;4347561;32;32684;-89
2022/05/28 00:27:10;;;;;;;0.68;0.22;;;;;;;20.01;42.05;99732.06;4369048;32;33234;-90
2022/05/28 00:29:49;;;;;;;1.33;0.45;;;;;;;20.09;41.44;99736.81;4346959;32;32854;-90
2022/05/28 00:32:17;;;;;;;0.30;0.30;;;;;;;20.11;41.31;99745.56;4352863;32;33856;-89
2022/05/28 00:34:46;;;;;;;0.80;0.20;;;;;;;19.53;43.28;99756.56;4357267;32;32938;-89
2022/05/28 00:37:14;;;;;;;0.28;0.25;;;;;;;19.88;42.17;99766.22;4345591;32;32965;-89
2022/05/28 00:39:42;;;;;;;0.40;0.40;;;;;;;19.62;43.00;99773.75;4339617;33;34689;-87
2022/05/28 00:42:10;;;;;;;0.50;0.32;;;;;;;19.55;42.56;99781.38;4337889;33;33857;-87
2022/05/28 00:44:38;;;;;;;0.28;0.28;;;;;;;19.06;43.28;99801.38;4341650;33;33765;-87
2022/05/28 00:47:07;;;;;;;1.10;0.37;;;;;;;19.32;42.19;99798.44;4338361;33;33266;-87
2022/05/28 00:49:35;;;;;;;0.90;0.35;;;;;;;19.72;40.89;99788.09;4359265;32;33926;-87
2022/05/28 00:52:05;;;;;;;0.95;0.30;;;;;;;19.46;41.61;99787.47;4343930;32;33506;-87
2022/05/28 00:54:40;;;;;;;0.37;0.37;;;;;;;19.45;41.17;99780.44;4342411;32;34703;-87
2022/05/28 00:57:09;;;;;;;3.70;0.45;;;;;;;19.41;41.88;99779.81;4340072;32;33755;-87
2022/05/28 00:59:37;;;;;;;0.70;0.30;;;;;;;19.50;41.39;99772.03;4336744;33;34636;-87
2022/05/28 01:02:16;;;;;;;0.40;0.40;;;;;;;19.51;41.40;99769.22;4344830;32;33514;-86
2022/05/28 01:04:58;;;;;;;0.65;0.40;;;;;;;19.58;41.09;99757.03;4338045;33;32997;-87
2022/05/28 01:07:36;;;;;;;0.75;0.40;;;;;;;19.44;41.53;99746.59;4352917;32;33423;-87
2022/05/28 01:10:14;;;;;;;0.85;0.30;;;;;;;19.17;42.26;99749.66;4351938;32;33743;-87
2022/05/28 01:12:57;;;;;;;0.50;0.40;;;;;;;19.18;42.07;99736.19;4355888;32;33603;-88
2022/05/28 01:15:31;;;;;;;0.52;0.47;;;;;;;19.19;42.51;99727.16;4336032;33;33382;-87
2022/05/28 01:18:14;;;;;;;0.40;0.20;;;;;;;19.22;42.44;99728.72;4353691;32;32987;-87
2022/05/28 01:20:50;;;;;;;0.25;0.25;;;;;;;19.16;42.74;99721.22;4356529;32;32447;-87
2022/05/28 01:23:27;;;;;;;0.40;0.37;;;;;;;19.09;43.11;99725.38;4357218;32;33683;-87
2022/05/28 01:26:24;;;;;;;0.43;0.30;;;;;;;18.91;43.49;99730.34;4346268;32;33590;-87
2022/05/28 01:28:56;;;;;;;0.52;0.37;;;;;;;18.92;43.67;99724.88;4350764;32;32687;-87
2022/05/28 01:31:26;;;;;;;2.70;0.55;;;;;;;18.79;44.13;99715.25;4346740;32;34260;-90
2022/05/28 01:33:55;;;;;;;0.82;0.52;;;;;;;18.76;44.31;99719.03;4363060;32;32606;-90
2022/05/28 01:36:24;;;;;;;3.22;0.77;;;;;;;18.53;44.89;99723.50;4362813;32;32559;-90
2022/05/28 01:38:57;;;;;;;0.30;0.30;;;;;;;18.61;44.79;99720.19;4363016;32;33522;-90
2022/05/28 01:41:26;;;;;;;1.17;0.40;;;;;;;18.75;44.59;99725.34;4351103;32;33005;-91
2022/05/28 01:43:57;;;;;;;0.50;0.50;;;;;;;18.70;44.64;99722.19;4351113;32;32987;-90
2022/05/28 01:46:28;;;;;;;1.25;0.32;;;;;;;18.93;44.26;99715.00;4350184;32;33324;-89
2022/05/28 01:48:57;;;;;;;0.50;0.50;;;;;;;18.90;44.20;99720.63;4353931;32;32903;-89
2022/05/28 01:51:32;;;;;;;0.52;0.50;;;;;;;18.77;44.64;99735.94;4353575;32;32760;-88
2022/05/28 01:54:11;;;;;;;0.82;0.43;;;;;;;18.90;44.36;99747.38;4343811;32;33490;-89
2022/05/28 01:56:56;;;;;;;1.52;0.85;;;;;;;18.83;44.72;99747.00;4357213;32;33305;-89
2022/05/28 02:03:51;;;;;;;1.33;0.30;;;;;;;19.01;44.51;99744.69;4357050;32;34684;-89
2022/05/28 02:06:19;;;;;;;1.20;0.55;;;;;;;18.85;44.79;99749.56;4338667;32;34006;-90
2022/05/28 02:08:49;;;;;;;0.88;0.40;;;;;;;18.80;44.99;99744.59;4351889;32;32765;-87
2022/05/28 02:11:21;;;;;;;2.25;0.60;;;;;;;18.57;45.85;99743.66;4351754;32;32567;-88
2022/05/28 02:14:18;;;;;;;0.47;0.40;;;;;;;18.71;45.45;99737.28;4353966;32;32891;-88
2022/05/28 02:17:17;;;;;;;0.57;0.40;;;;;;;18.49;45.98;99738.06;4354594;32;33856;-88
2022/05/28 02:20:30;;;;;;;2.17;0.40;;;;;;;18.28;47.02;99761.97;4352198;32;34171;-88
2022/05/28 02:23:28;;;;;;;0.55;0.40;;;;;;;18.67;45.74;99739.31;4292572;33;33375;-88
2022/05/28 02:26:09;;;;;;;0.40;0.30;;;;;;;18.43;46.58;99742.06;4343667;32;33661;-88
2022/05/28 02:28:45;;;;;;;0.97;0.50;;;;;;;18.68;45.99;99749.06;4353718;32;34542;-88
2022/05/28 02:31:18;;;;;;;0.52;0.30;;;;;;;18.38;47.29;99748.75;4349034;32;32779;-88
2022/05/28 02:33:46;;;;;;;0.68;0.50;;;;;;;18.22;47.21;99761.56;4345446;33;32744;-89
2022/05/28 02:36:16;;;;;;;2.37;0.50;;;;;;;18.12;47.57;99756.91;4341297;32;34665;-88
2022/05/28 02:38:46;;;;;;;1.23;0.55;;;;;;;18.61;46.78;99755.84;4326764;33;33935;-87
2022/05/28 02:41:17;;;;;;;0.57;0.55;;;;;;;18.78;46.34;99764.37;4337224;32;33010;-87
2022/05/28 02:43:45;;;;;;;0.40;0.40;;;;;;;18.77;46.31;99760.88;4338113;32;33607;-87
2022/05/28 02:46:13;;;;;;;2.87;0.57;;;;;;;18.72;46.66;99760.38;4327622;33;30743;-87
2022/05/28 02:48:42;;;;;;;0.50;0.40;;;;;;;18.65;46.91;99754.59;4357074;32;34255;-87
2022/05/28 02:51:22;;;;;;;2.08;0.57;;;;;;;18.45;47.91;99768.66;4356888;32;33637;-87
2022/05/28 02:53:53;;;;;;;2.05;0.43;;;;;;;18.60;47.35;99756.78;4351024;32;33308;-87
2022/05/28 02:56:22;;;;;;;0.93;0.40;;;;;;;18.86;46.63;99757.47;4345098;32;32893;-88
2022/05/28 02:58:51;;;;;;;1.33;0.50;;;;;;;18.74;47.02;99752.22;4338982;33;33236;-88
2022/05/28 03:01:33;;;;;;;1.62;0.80;;;;;;;18.66;47.23;99740.28;4339132;33;34217;-88
2022/05/28 03:04:04;;;;;;;1.58;0.47;;;;;;;18.63;46.89;99742.34;4326921;33;32688;-87
2022/05/28 03:06:32;;;;;;;2.62;0.73;;;;;;;18.63;46.98;99735.16;4338284;33;33599;-88
2022/05/28 03:09:00;;;;;;;0.85;0.65;;;;;;;18.32;47.64;99738.50;4327371;33;33337;-88
2022/05/28 03:11:28;;;;;;;0.40;0.30;;;;;;;18.13;48.06;99737.22;4354348;32;33778;-87
2022/05/28 03:13:56;;;;;;;0.98;0.50;;;;;;;18.08;48.62;99728.72;4320984;33;32280;-88
2022/05/28 03:16:23;;;;;;;1.25;0.52;;;;;;;18.19;48.55;99730.59;4325470;33;34120;-88
2022/05/28 03:18:52;;;;;;;2.28;0.40;;;;;;;18.03;49.01;99728.22;4337712;33;33995;-88
2022/05/28 03:21:20;;;;;;;1.02;0.47;;;;;;;18.08;48.69;99739.41;4332782;33;32760;-88
2022/05/28 03:23:47;;;;;;;2.12;0.88;;;;;;;17.90;49.32;99740.81;4335094;33;32610;-88
2022/05/28 03:26:21;;;;;;;1.48;0.45;;;;;;;18.05;48.91;99739.66;4343549;33;32524;-88
2022/05/28 03:28:53;;;;;;;1.05;0.50;;;;;;;18.22;48.27;99734.81;4338988;33;33115;-88
2022/05/28 03:31:21;;;;;;;0.73;0.45;;;;;;;18.20;48.26;99742.13;4342837;32;33259;-88
2022/05/28 03:33:50;;;;;;;0.40;0.40;;;;;;;18.01;48.73;99738.16;4344291;32;32488;-89
2022/05/28 03:36:19;;;;;;;0.60;0.50;;;;;;;18.10;48.25;99721.44;4346248;32;33257;-89
2022/05/28 03:38:51;;;;;;;2.10;0.55;;;;;;;17.85;49.30;99724.25;4363734;32;33298;-89
2022/05/28 03:41:19;;;;;;;0.50;0.50;;;;;;;18.08;48.74;99720.69;4335992;33;33054;-89
2022/05/28 03:43:47;;;;;;;2.15;0.57;;;;;;;17.84;49.49;99727.88;4354141;32;32750;-88
2022/05/28 03:46:31;;;;;;;2.37;0.52;;;;;;;18.04;48.80;99729.06;4339874;32;34644;-86
2022/05/28 03:49:04;;;;;;;1.45;0.40;;;;;;;18.17;48.17;99736.03;4343669;32;33671;-89
2022/05/28 03:51:33;;;;;;;0.65;0.52;;;;;;;18.06;48.66;99735.16;4339915;33;34629;-89
2022/05/28 03:54:02;;;;;;;0.68;0.62;;;;;;;17.99;48.71;99740.09;4345458;33;33308;-88
2022/05/28 03:56:34;;;;;;;;;;;;;;;17.80;49.55;99745.09;4357134;32;33165;-87
2022/05/28 03:59:03;;;;;;;1.27;0.47;;;;;;;18.33;48.23;99737.56;4355163;32;34196;-85
2022/05/28 04:01:32;;;;;;;0.70;0.50;;;;;;;18.19;48.94;99735.09;4350991;32;32729;-85
2022/05/28 04:04:00;;;;;;;0.57;0.50;;;;;;;18.34;47.99;99739.25;4365596;32;34144;-85
2022/05/28 04:06:28;;;;;;;0.45;0.40;;;;;;;18.39;47.81;99729.06;4344954;32;33609;-85
2022/05/28 04:08:56;;;;;;;0.80;0.60;;;;;;;18.36;47.81;99722.09;4356595;32;34015;-86
2022/05/28 04:11:24;;;;;;;1.27;0.82;;;;;;;18.14;48.92;99724.75;4350779;32;32318;-86
2022/05/28 04:13:54;;;;;;;0.82;0.40;;;;;;;18.02;49.25;99721.16;4361482;32;33086;-86
2022/05/28 04:16:23;;;;;;;1.33;0.50;;;;;;;18.07;48.96;99721.66;4346329;32;34260;-86
2022/05/28 04:18:51;;;;;;;3.72;0.65;;;;;;;18.40;47.86;99736.94;4349838;32;32856;-86
2022/05/28 04:21:20;;;;;;;2.62;0.82;;;;;;;18.23;48.31;99741.87;4349252;32;34306;-85
2022/05/28 04:23:48;;;;;;;1.65;0.52;;;;;;;18.35;47.92;99738.28;4359723;32;33280;-85
2022/05/28 04:26:16;;;;;;;0.85;0.52;;;;;;;18.63;47.15;99729.81;4358147;32;34029;-85
2022/05/28 04:28:44;;;;;;;1.42;0.70;;;;;;;18.78;46.76;99726.94;4341746;32;34536;-85
2022/05/28 04:31:12;;;;;;;2.22;0.90;;;;;;;18.86;46.73;99724.53;4331303;33;32973;-85
2022/05/28 04:33:40;;;;;;;0.68;0.55;;;;;;;18.87;46.93;99720.88;4345044;32;32317;-85
2022/05/28 04:36:09;;;;;;;1.12;0.55;;;;;;;18.90;47.10;99731.34;4346553;32;33420;-85
2022/05/28 04:38:38;;;;;;;1.73;0.80;;;;;;;18.96;47.10;99730.84;4357049;32;34365;-92
2022/05/28 04:41:06;;;;;;;0.95;0.55;;;;;;;18.83;47.53;99732.78;4349629;32;33765;-90
2022/05/28 04:43:34;;;;;;;0.82;0.50;;;;;;;18.77;47.80;99725.25;4360972;32;33173;-90
2022/05/28 04:46:10;;;;;;;1.50;0.75;;;;;;;18.55;48.86;99737.56;4346711;32;33056;-94
2022/05/28 04:48:50;;;;;;;0.90;0.55;;;;;;;18.91;47.39;99739.22;4348997;32;32659;-96
2022/05/28 04:51:42;;;;;;;0.70;0.50;;;;;;;18.92;47.35;99745.44;4368819;32;32282;-95
2022/05/28 04:54:25;;;;;;;3.62;0.98;;;;;;;19.03;47.32;99734.72;4390239;32;31760;-95
2022/05/28 04:57:18;;;;;;;1.60;0.60;;;;;;;18.58;48.45;99741.84;4395189;32;32711;-89
2022/05/28 04:59:46;;;;;;;0.85;0.50;;;;;;;18.62;48.45;99746.00;4400273;32;33831;-89
2022/05/28 05:02:15;;;;;;;0.75;0.62;;;;;;;18.86;47.81;99744.09;4410512;32;34483;-89
2022/05/28 05:04:43;;;;;;;1.27;0.70;;;;;;;19.00;47.38;99743.00;4386812;32;32686;-89
2022/05/28 05:07:13;;;;;;;2.00;0.80;;;;;;;18.94;47.17;99748.81;4412555;32;33056;-89
2022/05/28 05:09:41;;;;;;;1.58;0.70;;;;;;;18.98;47.12;99752.97;4394334;32;32724;-89
2022/05/28 05:12:10;;;;;;;1.50;0.90;;;;;;;18.90;47.13;99758.09;4385988;32;33802;-89
2022/05/28 05:14:39;;;;;;;5.53;0.70;;;;;;;18.80;47.59;99757.09;4412335;32;32809;-88
2022/05/28 05:17:08;;;;;;;2.47;0.90;;;;;;;18.87;48.11;99752.97;4424324;32;33926;-89
2022/05/28 05:19:36;;;;;;;2.00;0.73;;;;;;;19.24;45.05;99740.19;4399981;32;33347;-89
2022/05/28 05:22:11;;;;;;;1.48;0.60;;;;;;;19.15;45.11;99744.44;4405799;32;33273;-89
2022/05/28 05:24:40;;;;;;;2.25;1.00;;;;;;;19.04;45.67;99743.63;4415006;32;33404;-89
2022/05/28 05:27:10;;;;;;;1.08;0.82;;;;;;;19.12;44.78;99741.16;4410261;32;33714;-88
2022/05/28 05:29:39;;;;;;;0.50;0.50;;;;;;;18.90;45.50;99752.72;4393126;32;33099;-89
2022/05/28 05:32:09;;;;;;;0.70;0.60;;;;;;;18.89;46.75;99751.84;4416426;32;32527;-89
2022/05/28 05:34:37;;;;;;;1.10;0.77;;;;;;;19.18;45.52;99744.22;4402514;32;32810;-89
2022/05/28 05:37:06;;;;;;;1.25;0.77;;;;;;;18.98;47.06;99749.44;4413431;32;32707;-89
2022/05/28 05:39:35;;;;;;;1.73;0.65;;;;;;;19.22;46.50;99743.94;4388858;32;33362;-89
2022/05/28 05:42:04;;;;;;;2.95;0.95;;;;;;;18.97;47.09;99751.25;4384592;32;32851;-89
2022/05/28 05:44:34;;;;;;;0.98;0.70;;;;;;;19.06;46.97;99757.72;4390246;32;31865;-89
2022/05/28 05:49:38;;;;;;;3.78;1.10;;;;;;;19.23;47.13;99765.25;4407386;32;34124;-89
2022/05/28 05:52:08;;;;;;;0.88;0.43;;;;;;;19.10;47.55;99764.53;4398527;32;33261;-89
2022/05/28 05:54:38;;;;;;;1.50;0.95;;;;;;;19.15;47.49;99768.53;4387360;32;32418;-89
2022/05/28 05:57:08;;;;;;;1.87;0.50;;;;;;;19.46;45.73;99744.63;4405951;32;33528;-89
2022/05/28 05:59:38;;;;;;;0.63;0.53;;;;;;;19.56;46.26;99745.62;4394550;32;32672;-89
2022/05/28 06:02:08;;;;;;;2.58;0.95;;;;;;;19.47;46.60;99743.69;4391757;32;34283;-89
2022/05/28 06:04:40;;;;;;;1.70;0.62;;;;;;;19.41;46.94;99749.50;4407017;32;32791;-89
2022/05/28 06:07:09;;;;;;;1.67;0.80;;;;;;;19.56;46.68;99744.72;4396379;32;32483;-89
2022/05/28 06:09:38;;;;;;;3.47;0.73;;;;;;;19.65;45.19;99744.88;4404067;32;32590;-89
2022/05/28 06:12:12;;;;;;;0.80;0.70;;;;;;;19.81;44.71;99732.91;4407424;32;33274;-89
2022/05/28 06:14:43;;;;;;;0.90;0.70;;;;;;;19.59;47.09;99737.31;4416063;32;32071;-89
2022/05/28 06:17:22;;;;;;;1.17;0.70;;;;;;;19.82;45.42;99734.59;4393584;32;32921;-89
2022/05/28 06:20:02;;;;;;;4.55;1.10;;;;;;;19.93;44.89;99747.94;4406665;32;33169;-89
2022/05/28 06:22:31;;;;;;;0.57;0.57;;;;;;;20.06;44.72;99742.41;4397794;32;33634;-87
2022/05/28 06:25:00;;;;;;;1.48;0.40;;;;;;;20.38;45.18;99742.37;4408858;32;33155;-88
2022/05/28 06:27:41;;;;;;;0.60;0.40;;;;;;;20.21;43.83;99736.59;4399407;32;35579;-88
2022/05/28 06:30:14;;;;;;;1.60;1.45;;;;;;;20.52;43.08;99734.03;4398096;32;34474;-88
2022/05/28 06:32:44;;;;;;;2.33;0.70;;;;;;;20.92;42.76;99741.28;4384609;32;32929;-88
2022/05/28 06:35:16;;;;;;;0.93;0.60;;;;;;;20.83;42.87;99747.47;4402614;32;32568;-88
2022/05/28 06:37:44;;;;;;;0.60;0.60;;;;;;;20.69;43.86;99745.97;4404706;32;32512;-89
2022/05/28 06:40:13;;;;;;;0.62;0.62;;;;;;;20.64;43.53;99737.47;4403496;32;34057;-88
2022/05/28 06:42:46;;;;;;;1.10;0.68;;;;;;;20.44;43.14;99736.47;4410953;32;34575;-88
2022/05/28 06:45:15;;;;;;;0.95;0.77;;;;;;;20.19;44.23;99732.38;4379588;32;32124;-85
2022/05/28 06:47:52;;;;;;;2.50;0.80;;;;;;;20.32;43.33;99742.87;4380586;32;32455;-85
2022/05/28 06:53:08;;;;;;;7.25;1.20;;;;;;;20.82;41.54;99740.41;4397267;32;34322;-86
2022/05/28 06:55:37;;;;;;;2.42;1.15;;;;;;;20.29;43.27;99741.31;4397460;32;33615;-85
2022/05/28 06:58:07;;;;;;;4.40;0.70;;;;;;;20.33;43.09;99739.25;4409076;32;34297;-85
2022/05/28 07:00:40;;;;;;;0.85;0.60;;;;;;;20.26;42.95;99743.41;4378754;32;32416;-86
2022/05/28 07:03:16;;;;;;;2.90;1.00;;;;;;;20.39;43.57;99749.44;4411293;32;33845;-86
2022/05/28 07:05:45;;;;;;;1.30;0.62;;;;;;;20.58;44.64;99749.59;4403230;32;33611;-85
2022/05/28 07:08:21;;;;;;;5.30;1.27;;;;;;;20.70;43.52;99753.91;4396884;32;33859;-85
2022/05/28 07:10:59;;;;;;;1.45;0.95;;;;;;;20.89;43.38;99753.16;4396680;32;33890;-85
2022/05/28 07:13:29;;;;;;;1.83;0.90;;;;;;;20.88;43.34;99759.47;4410399;32;34538;-86
2022/05/28 07:15:57;;;;;;;0.40;0.40;;;;;;;20.73;42.50;99751.94;4371713;32;32294;-86
2022/05/28 07:18:28;;;;;;;0.80;0.40;;;;;;;21.04;42.58;99761.69;4386281;32;34030;-85
2022/05/28 07:20:57;;;;;;;2.05;0.90;;;;;;;21.01;42.48;99770.00;4408762;32;34168;-85
2022/05/28 07:23:28;;;;;;;10.32;1.25;;;;;;;21.07;41.03;99768.62;4397360;32;33613;-85
2022/05/28 07:26:12;;;;;;;5.05;1.27;;;;;;;21.23;41.79;99766.28;4392966;32;33295;-85
2022/05/28 07:28:46;;;;;;;1.05;0.93;;;;;;;21.20;41.29;99771.94;4376744;32;32997;-85
2022/05/28 07:31:18;;;;;;;2.50;1.00;;;;;;;20.85;42.15;99772.34;4391160;32;32649;-85
2022/05/28 07:33:51;;;;;;;1.20;0.95;;;;;;;21.20;41.41;99775.47;4387492;32;33798;-85
2022/05/28 07:36:37;;;;;;;4.22;0.80;;;;;;;20.84;41.29;99789.41;4397815;32;35023;-85
2022/05/28 07:39:06;;;;;;;2.72;0.93;;;;;;;21.06;40.85;99783.88;4400225;32;34024;-85
2022/05/28 07:41:37;;;;;;;1.25;0.80;;;;;;;21.16;40.32;99784.75;4401749;32;33960;-85
2022/05/28 07:44:08;;;;;;;3.92;0.80;;;;;;;21.28;40.43;99782.84;4402252;32;34912;-86
2022/05/28 07:46:39;;;;;;;1.80;0.70;;;;;;;21.16;39.90;99790.13;4396294;32;33827;-85
2022/05/28 07:49:10;;;;;;;3.78;1.02;;;;;;;21.06;39.58;99791.09;4400572;32;36326;-85
2022/05/28 07:51:44;;;;;;;1.00;0.88;;;;;;;20.97;39.03;99776.62;4401431;32;33945;-85
2022/05/28 07:54:16;;;;;;;2.97;1.40;;;;;;;21.14;38.60;99792.12;4401292;32;33017;-85
2022/05/28 07:56:44;;;;;;;1.60;0.80;;;;;;;21.02;40.26;99793.19;4420314;32;33116;-86
2022/05/28 07:59:12;;;;;;;2.83;1.20;;;;;;;21.14;39.67;99794.81;4395289;32;34280;-85
2022/05/28 08:01:41;;;;;;;1.12;0.62;;;;;;;21.05;41.21;99795.59;4387740;32;31522;-85
2022/05/28 08:04:19;;;;;;;1.20;0.90;;;;;;;21.15;41.59;99791.12;4396375;32;34344;-86
2022/05/28 08:06:50;;;;;;;2.12;1.05;;;;;;;21.11;41.65;99795.06;4401632;32;32167;-86
2022/05/28 08:09:20;;;;;;;3.17;0.80;;;;;;;21.35;41.88;99786.72;4413927;32;32855;-86
2022/05/28 08:11:52;;;;;;;3.12;0.98;;;;;;;21.47;41.00;99782.09;4417199;32;32788;-87
2022/05/28 08:14:24;;;;;;;4.25;0.88;;;;;;;21.39;40.54;99787.28;4415118;32;33740;-86
2022/05/28 08:16:52;;;;;;;3.20;1.08;;;;;;;21.58;39.50;99776.59;4395530;32;33590;-84
2022/05/28 08:19:22;;;;;;;2.03;1.00;;;;;;;21.15;40.44;99785.75;4394811;32;33844;-84
2022/05/28 08:24:40;;;;;;;1.08;0.68;;;;;;;21.45;40.63;99794.78;4414154;32;33501;-84
2022/05/28 08:27:11;;;;;;;2.87;1.12;;;;;;;21.63;38.75;99801.22;4397685;32;32931;-91
2022/05/28 08:29:57;;;;;;;4.72;0.80;;;;;;;21.63;38.48;99793.16;4424315;32;32716;-91
2022/05/28 08:32:26;;;;;;;2.12;1.10;;;;;;;21.26;39.93;99797.38;4424165;32;33574;-91
2022/05/28 08:34:58;;;;;;;3.53;0.82;;;;;;;21.91;39.08;99798.72;4423759;32;32746;-91
2022/05/28 08:37:27;;;;;;;0.95;0.55;;;;;;;22.11;38.63;99805.84;4423768;32;32418;-91
2022/05/28 08:40:02;;;;;;;15.27;1.87;;;;;;;21.98;35.72;99805.22;4412166;32;32479;-91
2022/05/28 08:42:31;;;;;;;1.58;0.70;;;;;;;21.92;34.56;99795.03;4411009;32;33469;-91
2022/05/28 08:45:05;;;;;;;8.90;1.52;;;;;;;22.22;34.52;99792.28;4423846;32;32646;-90
2022/05/28 08:47:39;;;;;;;4.50;0.90;;;;;;;22.31;34.60;99795.09;4423915;32;33063;-90
2022/05/28 08:50:13;;;;;;;4.20;1.05;;;;;;;22.02;36.33;99795.91;4399084;32;33216;-91
2022/05/28 08:53:04;;;;;;;3.00;0.68;;;;;;;21.74;36.27;99792.19;4403078;32;32299;-91
2022/05/28 08:55:44;;;;;;;5.22;1.08;;;;;;;21.68;35.86;99788.22;4397028;32;32958;-91
2022/05/28 08:58:21;;;;;;;5.68;1.05;;;;;;;22.05;35.88;99784.88;4390817;32;32739;-91
2022/05/28 09:01:15;;;;;;;2.17;0.88;;;;;;;22.31;34.04;99787.87;4381796;32;33040;-90
2022/05/28 09:03:54;;;;;;;3.40;0.80;;;;;;;22.64;35.53;99786.56;4400050;32;34755;-91
2022/05/28 09:06:36;;;;;;;1.20;0.90;;;;;;;22.71;34.29;99801.16;4401816;32;32557;-91
2022/05/28 09:09:10;;;;;;;3.03;0.70;;;;;;;22.65;33.73;99787.44;4388853;32;32179;-91
2022/05/28 09:12:03;;;;;;;3.12;0.90;;;;;;;22.38;35.85;99785.47;4400465;32;33014;-84
2022/05/28 09:14:36;;;;;;;2.53;0.90;;;;;;;22.30;34.43;99775.41;4396938;32;33411;-84
2022/05/28 09:17:35;;;;;;;2.20;0.85;;;;;;;22.34;35.83;99775.97;4398646;32;33488;-84
2022/05/28 09:20:15;;;;;;;9.02;1.12;;;;;;;22.59;34.19;99775.38;4400409;32;33487;-84
2022/05/28 09:22:44;;;;;;;3.50;1.27;;;;;;;22.24;34.88;99778.69;4389370;32;32665;-84
2022/05/28 09:25:13;;;;;;;3.75;0.98;;;;;;;21.95;35.84;99773.28;4402116;32;34744;-84
2022/05/28 09:28:04;;;;;;;3.33;1.40;;;;;;;22.18;36.09;99784.62;4390063;32;33335;-86
2022/05/28 09:31:06;;;;;;;3.58;1.02;;;;;;;21.94;35.10;99777.81;4395581;32;32401;-86
2022/05/28 09:34:01;;;;;;;1.75;0.93;;;;;;;21.83;35.79;99777.06;4386071;32;34681;-86
2022/05/28 09:36:44;;;;;;;3.12;0.93;;;;;;;22.68;36.15;99773.66;4411326;32;33251;-86
2022/05/28 09:39:29;;;;;;;5.87;1.25;;;;;;;22.19;37.68;99776.41;4390264;32;33624;-86
2022/05/28 09:42:19;;;;;;;3.00;1.42;;;;;;;22.87;36.40;99776.31;4403110;32;32394;-86
2022/05/28 09:45:21;;;;;;;1.55;1.08;;;;;;;22.99;36.30;99779.72;4399639;32;33183;-86
2022/05/28 09:47:53;;;;;;;2.87;0.93;;;;;;;22.69;36.20;99784.31;4400969;32;34400;-86
2022/05/28 09:50:30;;;;;;;2.35;1.58;;;;;;;22.51;36.84;99780.66;4388051;32;32065;-86
2022/05/28 09:56:06;;;;;;;2.83;1.30;;;;;;;22.32;38.74;99796.81;4397497;32;33285;-86
2022/05/28 09:58:37;;;;;;;3.17;1.77;;;;;;;21.99;36.77;99786.28;4364807;32;32575;-86
2022/05/28 10:01:28;;;;;;;6.68;1.83;;;;;;;22.32;37.75;99786.06;4386152;32;33238;-86
2022/05/28 10:06:54;;;;;;;1.98;1.30;;;;;;;21.52;37.27;99782.53;4385996;32;33102;-84
2022/05/28 10:09:31;;;;;;;1.10;1.00;;;;;;;22.01;38.95;99778.06;4401417;32;32806;-86
2022/05/28 10:12:17;;;;;;;4.15;1.55;;;;;;;21.57;38.56;99779.44;4393994;32;33951;-86
2022/05/28 10:14:57;;;;;;;4.80;1.37;;;;;;;21.48;39.42;99767.66;4402091;32;32691;-86
2022/05/28 10:20:12;;;;;;;2.40;1.30;;;;;;;22.56;37.21;99761.38;4394170;32;32424;-90
2022/05/28 10:22:43;;;;;;;3.22;1.50;;;;;;;22.92;35.89;99754.34;4384965;32;33365;-91
2022/05/28 10:25:41;;;;;;;6.00;1.77;;;;;;;23.28;36.36;99736.50;4381204;32;32760;-91
2022/05/28 10:28:26;;;;;;;2.47;0.90;;;;;;;23.40;36.58;99742.50;4407206;32;32417;-92
2022/05/28 10:31:23;;;;;;;6.25;1.55;;;;;;;23.25;35.15;99745.69;4384950;32;33545;-91
2022/05/28 10:33:52;;;;;;;3.00;0.90;;;;;;;23.16;34.63;99753.84;4389703;32;33094;-90
2022/05/28 10:36:27;;;;;;;3.50;1.37;;;;;;;23.21;35.42;99752.38;4369676;32;32002;-92
2022/05/28 10:39:14;;;;;;;3.12;1.30;;;;;;;23.39;35.18;99743.50;4392630;32;33118;-91
2022/05/28 10:42:03;;;;;;;2.97;1.05;;;;;;;23.27;34.78;99750.13;4383319;32;34075;-90
2022/05/28 10:44:35;;;;;;;10.00;1.10;;;;;;;23.44;35.84;99736.66;4338804;32;33683;-92
2022/05/28 10:50:38;;;;;;;1.95;0.68;;;;;;;23.32;31.67;99739.75;4364064;32;33607;-84
2022/05/28 10:53:20;;;;;;;3.22;1.27;;;;;;;23.16;32.60;99743.06;4351913;32;32857;-85
2022/05/28 10:56:00;;;;;;;1.30;0.90;;;;;;;23.24;34.65;99737.78;4360203;32;34281;-87
2022/05/28 10:58:49;;;;;;;4.35;0.90;;;;;;;23.45;33.81;99726.72;4360029;32;33524;-86
2022/05/28 11:01:49;;;;;;;1.40;0.93;;;;;;;23.76;30.96;99722.72;4356298;32;32881;-86
2022/05/28 11:04:41;;;;;;;2.20;1.10;;;;;;;23.65;30.76;99728.34;4353074;32;33507;-86
2022/05/28 11:07:25;;;;;;;2.60;1.10;;;;;;;23.56;31.67;99723.84;4324388;32;32908;-85
2022/05/28 11:10:00;;;;;;;2.85;0.88;;;;;;;23.02;33.50;99724.69;4353211;32;33047;-85
2022/05/28 11:12:49;;;;;;;3.53;0.90;;;;;;;22.49;30.82;99729.66;4349673;32;32387;-86
2022/05/28 11:15:29;;;;;;;2.58;1.00;;;;;;;22.36;31.33;99731.81;4354588;32;34985;-87
2022/05/28 11:18:31;;;;;;;2.65;1.60;;;;;;;23.14;30.63;99735.13;4350239;32;32829;-87
2022/05/28 11:21:14;;;;;;;2.35;0.88;;;;;;;22.68;30.86;99731.44;4354991;32;32941;-85
2022/05/28 11:24:05;;;;;;;2.50;1.27;;;;;;;23.00;28.67;99717.63;4347953;32;33114;-85
2022/05/28 11:26:35;;;;;;;2.75;1.05;;;;;;;22.54;29.66;99721.16;4358281;32;33034;-85
2022/05/28 11:29:22;;;;;;;4.72;1.12;;;;;;;23.15;30.46;99715.28;4364361;32;33266;-86
2022/05/28 11:31:56;;;;;;;3.08;0.80;;;;;;;23.18;28.83;99719.53;4365070;32;32566;-85
2022/05/28 11:34:37;;;;;;;4.05;1.30;;;;;;;23.41;27.92;99711.91;4359445;32;34298;-85
2022/05/28 11:37:15;;;;;;;2.53;1.60;;;;;;;23.43;28.45;99709.88;4353428;32;33800;-85
2022/05/28 11:39:55;;;;;;;1.58;0.80;;;;;;;23.46;29.33;99698.81;4339419;32;32724;-85
2022/05/28 11:42:47;;;;;;;3.10;1.02;;;;;;;23.87;28.99;99693.84;4357493;32;32719;-85
2022/05/28 11:45:28;;;;;;;3.83;0.90;;;;;;;23.64;30.21;99705.09;4382426;32;33347;-85
2022/05/28 11:48:07;;;;;;;1.35;0.90;;;;;;;23.51;28.38;99705.44;4365662;32;32910;-85
2022/05/28 11:53:35;;;;;;;5.87;0.90;;;;;;;23.63;27.88;99687.19;4376419;32;33761;-85
2022/05/28 11:56:13;;;;;;;2.12;0.82;;;;;;;23.27;29.26;99690.84;4368164;32;33136;-85
2022/05/28 11:58:45;;;;;;;2.15;0.57;;;;;;;23.40;28.91;99683.22;4359915;32;34036;-84
2022/05/28 12:01:21;;;;;;;3.30;1.20;;;;;;;23.68;29.46;99684.06;4355999;32;33090;-85
2022/05/28 12:03:52;;;;;;;2.03;0.95;;;;;;;23.47;30.35;99678.94;4391624;32;34078;-85
2022/05/28 12:06:30;;;;;;;2.53;0.95;;;;;;;23.42;31.30;99679.41;4361515;32;33323;-85
2022/05/28 12:09:19;;;;;;;2.85;0.90;;;;;;;23.19;30.74;99673.59;4368658;32;33354;-85
2022/05/28 12:12:14;;;;;;;2.12;0.70;;;;;;;23.37;29.94;99676.31;4367288;32;32959;-85
2022/05/28 12:14:47;;;;;;;2.75;1.35;;;;;;;23.55;28.42;99672.78;4365105;32;32358;-85
2022/05/28 12:17:20;;;;;;;2.85;0.70;;;;;;;23.31;26.18;99666.16;4359035;32;33540;-85
2022/05/28 12:19:58;;;;;;;3.08;0.85;;;;;;;23.36;26.39;99666.53;4368044;32;33131;-85
2022/05/28 12:22:26;;;;;;;5.07;0.77;;;;;;;23.45;26.52;99665.63;4359438;32;33102;-85
2022/05/28 12:25:06;;;;;;;2.58;1.15;;;;;;;22.60;27.67;99669.44;4356329;32;32537;-85
2022/05/28 12:28:10;;;;;;;2.25;0.75;;;;;;;23.12;26.82;99667.13;4364412;32;32847;-85
2022/05/28 12:30:44;;;;;;;;;;;;;;;22.94;28.64;99664.38;4367135;32;32790;-85
2022/05/28 12:33:28;;;;;;;7.15;0.77;;;;;;;23.15;27.49;99672.19;4378960;32;34250;-85
2022/05/28 12:39:26;;;;;;;3.17;0.62;;;;;;;23.49;26.79;99664.31;4351570;32;32381;-85
2022/05/28 12:42:04;;;;;;;3.53;1.67;;;;;;;23.16;26.10;99671.19;4335718;32;35729;-85